Time;durP1;ratioP1;P1;durP2;ratioP2;P2;SDS_P1;SDS_P2;PMS_P1;PMS_P2;Temp;Humidity;BMP_temperature;BMP_pressure;BME280_temperature;BME280_humidity;BME280_pressure;Samples;Min_cycle;Max_cycle;Signal;HPM_P1;HPM_P2
2021/04/26 00:01:42;;;;;;;4.57;1.80;;;-0.10;99.90;;;;;;3576562;40;20063;-68
2021/04/26 00:04:07;;;;;;;2.88;1.23;;;0.00;99.90;;;;;;3569859;40;20041;-69
2021/04/26 00:06:33;;;;;;;0.95;0.80;;;0.10;99.90;;;;;;3569597;40;20040;-68
2021/04/26 00:08:59;;;;;;;3.25;1.00;;;0.20;99.90;;;;;;3570078;40;20033;-68
2021/04/26 00:11:24;;;;;;;3.42;1.20;;;0.30;99.90;;;;;;3570577;40;20056;-69
2021/04/26 00:13:50;;;;;;;2.78;1.00;;;0.40;99.90;;;;;;3571404;40;20041;-69
2021/04/26 00:16:16;;;;;;;1.67;1.10;;;0.50;99.90;;;;;;3572862;40;20057;-69
2021/04/26 00:18:42;;;;;;;2.03;1.13;;;0.50;99.90;;;;;;3572508;40;20692;-68
2021/04/26 00:21:08;;;;;;;2.08;1.27;;;0.50;99.90;;;;;;3573674;40;20849;-68
2021/04/26 00:23:34;;;;;;;4.50;1.77;;;0.40;99.90;;;;;;3575615;40;20029;-69
2021/04/26 00:26:00;;;;;;;5.60;1.85;;;0.40;99.90;;;;;;3575639;40;20118;-69
2021/04/26 00:28:25;;;;;;;4.07;1.58;;;0.20;99.90;;;;;;3575713;40;20157;-69
2021/04/26 00:30:51;;;;;;;4.65;1.60;;;0.20;99.90;;;;;;3576324;40;20037;-68
2021/04/26 00:33:17;;;;;;;3.72;1.42;;;0.10;99.90;;;;;;3577903;40;20032;-70
2021/04/26 00:35:43;;;;;;;3.20;1.10;;;0.10;99.90;;;;;;3578273;40;20037;-69
2021/04/26 00:38:08;;;;;;;3.05;1.00;;;0.10;99.90;;;;;;3578183;40;20044;-69
2021/04/26 00:40:34;;;;;;;1.17;1.00;;;0.10;99.90;;;;;;3577405;40;20119;-69
2021/04/26 00:43:00;;;;;;;2.30;0.98;;;0.10;99.90;;;;;;3576669;40;20076;-69
2021/04/26 00:45:26;;;;;;;4.25;0.95;;;0.20;99.90;;;;;;3575217;40;20037;-69
2021/04/26 00:47:53;;;;;;;1.75;0.93;;;0.20;99.90;;;;;;3574470;40;20056;-69
2021/04/26 00:50:30;;;;;;;3.80;1.10;;;0.20;99.90;;;;;;3573466;40;20049;-69
2021/04/26 00:52:57;;;;;;;2.13;1.00;;;0.30;99.90;;;;;;3573982;40;20146;-69
2021/04/26 00:55:26;;;;;;;2.22;1.17;;;0.30;99.90;;;;;;3575292;40;20839;-68
2021/04/26 00:57:51;;;;;;;5.38;1.42;;;0.30;99.90;;;;;;3575955;40;20414;-68
2021/04/26 01:00:19;;;;;;;3.85;1.40;;;0.30;99.90;;;;;;3576388;40;20037;-68
2021/04/26 01:02:45;;;;;;;5.70;2.28;;;0.20;99.90;;;;;;3578093;40;20741;-68
2021/04/26 01:05:15;;;;;;;6.57;2.72;;;0.10;99.90;;;;;;3576864;40;20662;-69
2021/04/26 01:07:43;;;;;;;9.02;3.30;;;0.00;99.90;;;;;;3569520;40;20049;-68
2021/04/26 01:10:14;;;;;;;7.78;2.70;;;-0.10;99.90;;;;;;3569480;40;20145;-68
2021/04/26 01:13:11;;;;;;;4.78;2.10;;;-0.20;99.90;;;;;;3574475;40;20086;-69
2021/04/26 01:15:42;;;;;;;2.78;1.58;;;-0.30;99.90;;;;;;3569958;40;20036;-69
2021/04/26 01:18:53;;;;;;;4.18;1.30;;;-0.30;99.90;;;;;;3573649;40;20035;-69
2021/04/26 01:21:22;;;;;;;4.57;1.35;;;-0.30;99.90;;;;;;3567569;40;20048;-69
2021/04/26 01:24:11;;;;;;;7.15;2.92;;;-0.30;99.90;;;;;;3571740;40;20056;-69
2021/04/26 01:26:57;;;;;;;11.48;2.70;;;-0.30;99.90;;;;;;3570912;40;20788;-69
2021/04/26 01:29:42;;;;;;;;;;;-0.40;99.90;;;;;;3577739;40;20037;-69
2021/04/26 01:32:22;;;;;;;6.53;3.00;;;-0.50;99.90;;;;;;3567299;40;19932;-69
2021/04/26 01:34:50;;;;;;;3.95;2.10;;;-0.60;99.90;;;;;;3576058;40;20065;-69
2021/04/26 01:37:23;;;;;;;5.03;2.28;;;-0.60;99.90;;;;;;3575546;40;20763;-68
2021/04/26 01:39:50;;;;;;;7.38;2.30;;;-0.70;99.90;;;;;;3573267;40;20025;-69
2021/04/26 01:42:17;;;;;;;4.45;2.28;;;-0.70;99.90;;;;;;3575880;40;20069;-69
2021/04/26 01:44:43;;;;;;;5.70;3.17;;;-0.90;99.90;;;;;;3574631;40;20594;-68
2021/04/26 01:47:11;;;;;;;8.20;4.15;;;-0.90;99.90;;;;;;3575860;40;20756;-68
2021/04/26 01:49:38;;;;;;;9.55;4.60;;;-1.00;99.90;;;;;;3572263;40;20165;-69
2021/04/26 01:52:08;;;;;;;7.20;4.18;;;-1.00;99.90;;;;;;3573227;40;20044;-68
2021/04/26 01:54:35;;;;;;;7.22;3.33;;;-1.10;99.90;;;;;;3570632;40;20158;-69
2021/04/26 01:57:01;;;;;;;5.80;3.00;;;-1.10;99.90;;;;;;3571868;40;20037;-69
2021/04/26 01:59:28;;;;;;;5.45;3.25;;;-1.10;99.90;;;;;;3576347;40;20037;-68
2021/04/26 02:01:56;;;;;;;7.22;3.47;;;-1.10;99.90;;;;;;3576105;40;20040;-68
2021/04/26 02:04:27;;;;;;;5.20;2.90;;;-1.10;99.90;;;;;;3571035;40;20052;-68
2021/04/26 02:07:15;;;;;;;3.65;1.98;;;-1.10;99.90;;;;;;3568482;40;20182;-69
2021/04/26 02:09:56;;;;;;;4.75;2.10;;;-1.10;99.90;;;;;;3574421;40;20041;-68
2021/04/26 02:12:23;;;;;;;2.55;1.55;;;-1.00;99.90;;;;;;3574994;40;20041;-69
2021/04/26 02:14:51;;;;;;;4.20;1.20;;;-1.00;99.90;;;;;;3575770;40;20045;-68
2021/04/26 02:17:16;;;;;;;2.67;1.30;;;-0.90;99.90;;;;;;3572435;40;20987;-68
2021/04/26 02:19:45;;;;;;;3.45;1.27;;;-0.80;99.90;;;;;;3573115;40;20033;-68
2021/04/26 02:22:12;;;;;;;2.30;1.20;;;-0.80;99.90;;;;;;3575726;40;20071;-68
2021/04/26 02:24:53;;;;;;;1.77;1.10;;;-0.70;99.90;;;;;;3574229;40;20122;-68
2021/04/26 02:27:19;;;;;;;8.27;1.30;;;-0.70;99.90;;;;;;3574942;40;20033;-68
2021/04/26 02:29:44;;;;;;;4.00;1.52;;;-0.70;99.90;;;;;;3576289;40;20102;-68
2021/04/26 02:32:17;;;;;;;5.18;2.38;;;-0.70;99.90;;;;;;3575417;40;20044;-68
2021/04/26 02:34:53;;;;;;;3.17;2.17;;;-0.80;99.90;;;;;;3575687;40;20057;-68
2021/04/26 02:37:47;;;;;;;4.38;1.30;;;-0.90;99.90;;;;;;3567434;40;20035;-69
2021/04/26 02:40:16;;;;;;;3.40;1.30;;;-0.80;99.90;;;;;;3573592;40;20032;-68
2021/04/26 02:42:50;;;;;;;6.15;1.40;;;-0.80;99.90;;;;;;3574164;40;20744;-69
2021/04/26 02:45:24;;;;;;;1.90;1.30;;;-0.80;99.90;;;;;;3569522;40;20082;-68
2021/04/26 02:47:51;;;;;;;2.50;1.15;;;-0.70;99.90;;;;;;3571977;40;20082;-69
2021/04/26 02:50:25;;;;;;;3.22;1.10;;;-0.70;99.90;;;;;;3575033;40;20115;-68
2021/04/26 02:53:05;;;;;;;3.50;1.33;;;-0.70;99.90;;;;;;3584661;39;20106;-68
2021/04/26 02:55:34;;;;;;;3.70;1.40;;;-0.60;99.90;;;;;;3579503;39;20064;-68
2021/04/26 02:58:01;;;;;;;8.18;1.35;;;-0.60;99.90;;;;;;3578717;40;20052;-69
2021/04/26 03:00:29;;;;;;;3.85;1.40;;;-0.60;99.90;;;;;;3576433;40;20037;-68
2021/04/26 03:03:19;;;;;;;8.35;1.60;;;-0.60;99.90;;;;;;3573626;40;20150;-68
2021/04/26 03:05:48;;;;;;;2.53;1.13;;;-0.50;99.90;;;;;;3576802;40;20646;-69
2021/04/26 03:08:16;;;;;;;4.57;1.27;;;-0.50;99.90;;;;;;3577328;40;20060;-68
2021/04/26 03:10:43;;;;;;;2.75;1.48;;;-0.50;99.90;;;;;;3572644;40;20084;-69
2021/04/26 03:13:09;;;;;;;2.67;1.30;;;-0.60;99.90;;;;;;3580491;40;20649;-68
2021/04/26 03:15:36;;;;;;;3.03;1.40;;;-0.60;99.90;;;;;;3576156;39;20044;-68
2021/04/26 03:18:03;;;;;;;3.78;1.40;;;-0.50;99.90;;;;;;3580584;39;20036;-68
2021/04/26 03:20:31;;;;;;;3.65;1.20;;;-0.60;99.90;;;;;;3576932;40;20036;-68
2021/04/26 03:23:15;;;;;;;5.05;1.40;;;-0.60;99.90;;;;;;3581126;40;20713;-69
2021/04/26 03:25:42;;;;;;;1.73;1.10;;;-0.50;99.90;;;;;;3578565;39;20717;-69
2021/04/26 03:28:11;;;;;;;3.17;0.90;;;-0.60;99.90;;;;;;3581071;40;20045;-69
2021/04/26 03:30:39;;;;;;;2.60;1.77;;;-0.50;99.90;;;;;;3579137;39;20173;-69
2021/04/26 03:33:14;;;;;;;3.08;1.40;;;-0.60;99.90;;;;;;3580136;40;20081;-68
2021/04/26 03:35:42;;;;;;;3.20;1.45;;;-0.60;99.90;;;;;;3574661;39;20040;-69
2021/04/26 03:38:10;;;;;;;2.80;1.30;;;-0.60;99.90;;;;;;3581142;40;20136;-69
2021/04/26 03:40:38;;;;;;;1.38;1.20;;;-0.60;99.90;;;;;;3577824;40;20081;-69
2021/04/26 03:43:04;;;;;;;2.90;1.35;;;-0.60;99.90;;;;;;3574579;40;20041;-68
2021/04/26 03:45:52;;;;;;;2.42;1.33;;;-0.70;99.90;;;;;;3575431;40;20104;-68
2021/04/26 03:48:36;;;;;;;2.45;1.20;;;-0.70;99.90;;;;;;3576806;40;20644;-68
2021/04/26 03:51:16;;;;;;;3.65;1.25;;;-0.70;99.90;;;;;;3576745;40;20434;-69
2021/04/26 03:54:00;;;;;;;1.75;1.10;;;-0.70;99.90;;;;;;3573974;40;20130;-69
2021/04/26 03:56:37;;;;;;;3.33;1.13;;;-0.80;99.90;;;;;;3575458;40;20064;-69
2021/04/26 03:59:03;;;;;;;3.67;1.20;;;-0.90;99.90;;;;;;3575597;40;20128;-69
2021/04/26 04:01:31;;;;;;;3.08;1.40;;;-1.00;99.90;;;;;;3577077;40;20047;-68
2021/04/26 04:03:58;;;;;;;5.68;1.40;;;-1.00;99.90;;;;;;3576910;40;20564;-68
2021/04/26 04:06:27;;;;;;;3.75;1.15;;;-1.10;99.90;;;;;;3576655;40;20040;-68
2021/04/26 04:09:11;;;;;;;2.10;1.10;;;-1.10;99.90;;;;;;3575624;40;20051;-68
2021/04/26 04:12:10;;;;;;;2.97;1.23;;;-1.00;99.90;;;;;;3575729;40;20048;-68
2021/04/26 04:14:39;;;;;;;2.92;1.02;;;-1.00;99.90;;;;;;3578907;40;20044;-68
2021/04/26 04:17:08;;;;;;;1.80;1.23;;;-0.90;99.90;;;;;;3577126;39;20061;-68
2021/04/26 04:19:33;;;;;;;2.38;1.25;;;-0.90;99.90;;;;;;3574263;40;20033;-68
2021/04/26 04:22:01;;;;;;;2.42;1.17;;;-0.90;99.90;;;;;;3581246;40;20514;-69
2021/04/26 04:24:28;;;;;;;4.63;1.10;;;-0.80;99.90;;;;;;3583915;40;20039;-68
2021/04/26 04:26:55;;;;;;;3.05;1.27;;;-0.80;99.90;;;;;;3577698;39;20139;-68
2021/04/26 04:29:22;;;;;;;1.38;1.05;;;-0.70;99.90;;;;;;3577209;40;20811;-68
2021/04/26 04:31:51;;;;;;;5.55;1.50;;;-0.70;99.90;;;;;;3581645;40;20079;-68
2021/04/26 04:34:40;;;;;;;5.15;1.20;;;-0.70;99.90;;;;;;3578772;40;20055;-69
2021/04/26 04:37:37;;;;;;;2.10;1.15;;;-0.70;99.90;;;;;;3572397;40;20114;-69
2021/04/26 04:40:21;;;;;;;2.60;1.45;;;-0.60;99.90;;;;;;3579338;40;20137;-69
2021/04/26 04:42:54;;;;;;;4.47;1.40;;;-0.60;99.90;;;;;;3578422;40;20044;-68
2021/04/26 04:45:23;;;;;;;3.90;1.20;;;-0.50;99.90;;;;;;3578503;40;20126;-69
2021/04/26 04:48:18;;;;;;;2.88;1.27;;;-0.50;99.90;;;;;;3582900;40;20125;-68
2021/04/26 04:50:50;;;;;;;2.97;1.40;;;-0.40;99.90;;;;;;3577503;40;20044;-68
2021/04/26 04:53:16;;;;;;;2.88;1.20;;;-0.30;99.90;;;;;;3583091;40;20040;-69
2021/04/26 04:55:42;;;;;;;1.92;1.17;;;-0.30;99.90;;;;;;3576461;40;20924;-70
2021/04/26 04:58:08;;;;;;;3.25;1.17;;;-0.30;99.90;;;;;;3578047;40;20052;-68
2021/04/26 05:00:35;;;;;;;3.47;1.60;;;-0.20;99.90;;;;;;3581106;40;20406;-68
2021/04/26 05:03:09;;;;;;;3.75;1.13;;;-0.10;99.90;;;;;;3579455;40;20044;-70
2021/04/26 05:05:53;;;;;;;2.55;1.30;;;0.00;99.90;;;;;;3582190;40;20499;-68
2021/04/26 05:08:37;;;;;;;2.28;1.30;;;0.10;99.90;;;;;;3580391;40;20076;-68
2021/04/26 05:11:26;;;;;;;2.83;1.48;;;0.20;99.90;;;;;;3582393;40;20044;-68
2021/04/26 05:14:19;;;;;;;2.40;1.20;;;0.40;99.90;;;;;;3575697;40;20147;-68
2021/04/26 05:16:45;;;;;;;4.05;1.27;;;0.40;99.90;;;;;;3577083;40;20041;-70
2021/04/26 05:19:12;;;;;;;4.15;1.55;;;0.40;99.90;;;;;;3582684;40;20049;-68
2021/04/26 05:21:38;;;;;;;7.57;1.30;;;0.50;99.90;;;;;;3579287;40;20320;-68
2021/04/26 05:24:04;;;;;;;2.60;1.42;;;0.60;99.90;;;;;;3579584;40;20048;-68
2021/04/26 05:26:30;;;;;;;4.25;1.40;;;0.60;99.90;;;;;;3581018;40;20130;-68
2021/04/26 05:28:56;;;;;;;5.78;1.63;;;0.70;99.90;;;;;;3577169;40;20152;-69
2021/04/26 05:31:23;;;;;;;6.78;1.73;;;0.80;99.90;;;;;;3583329;39;20048;-68
2021/04/26 05:33:49;;;;;;;2.72;1.42;;;0.90;99.90;;;;;;3578016;40;20107;-68
2021/04/26 05:36:33;;;;;;;5.47;1.63;;;1.00;99.90;;;;;;3578652;39;20086;-68
2021/04/26 05:39:02;;;;;;;4.30;1.98;;;1.10;99.90;;;;;;3575923;40;20029;-68
2021/04/26 05:41:28;;;;;;;6.38;1.75;;;1.20;99.90;;;;;;3576767;40;20033;-68
2021/04/26 05:43:54;;;;;;;6.60;1.60;;;1.30;99.90;;;;;;3581676;40;20688;-68
2021/04/26 05:46:21;;;;;;;3.65;1.40;;;1.40;99.90;;;;;;3582344;39;20480;-68
2021/04/26 05:48:47;;;;;;;5.22;1.80;;;1.60;99.90;;;;;;3577620;40;20421;-68
2021/04/26 05:51:13;;;;;;;2.35;1.30;;;1.80;99.90;;;;;;3580123;40;20044;-67
2021/04/26 05:53:38;;;;;;;8.55;1.77;;;2.00;99.90;;;;;;3579090;40;20829;-68
2021/04/26 05:56:04;;;;;;;3.58;1.20;;;2.20;99.90;;;;;;3576829;40;20066;-68
2021/04/26 05:58:30;;;;;;;4.28;1.50;;;2.40;99.90;;;;;;3577678;40;20070;-68
2021/04/26 06:00:56;;;;;;;4.63;1.20;;;2.50;99.90;;;;;;3578287;40;20575;-68
2021/04/26 06:03:21;;;;;;;3.70;1.48;;;2.60;99.90;;;;;;3578407;40;20110;-68
2021/04/26 06:05:47;;;;;;;4.95;3.13;;;2.80;99.90;;;;;;3580412;39;20040;-68
2021/04/26 06:08:13;;;;;;;4.15;1.52;;;2.90;99.90;;;;;;3578050;40;20048;-68
2021/04/26 06:10:38;;;;;;;1.50;0.98;;;3.10;99.90;;;;;;3575637;40;20048;-68
2021/04/26 06:13:04;;;;;;;19.30;2.85;;;3.20;99.90;;;;;;3578674;40;20047;-68
2021/04/26 06:15:30;;;;;;;4.55;1.30;;;3.40;99.90;;;;;;3576866;39;20025;-68
2021/04/26 06:18:13;;;;;;;8.25;1.98;;;3.50;99.90;;;;;;3573396;40;20037;-69
2021/04/26 06:20:40;;;;;;;3.08;0.95;;;3.60;99.90;;;;;;3580465;40;20048;-69
2021/04/26 06:23:06;;;;;;;7.15;1.27;;;3.80;99.90;;;;;;3580347;40;20914;-69
2021/04/26 06:25:35;;;;;;;7.32;1.35;;;4.00;99.90;;;;;;3573418;40;20048;-69
2021/04/26 06:28:01;;;;;;;7.70;1.40;;;4.20;99.90;;;;;;3577157;40;20033;-69
2021/04/26 06:30:27;;;;;;;6.07;1.00;;;4.20;99.90;;;;;;3576451;40;20081;-69
2021/04/26 06:32:53;;;;;;;9.05;1.10;;;4.30;99.90;;;;;;3582779;39;20040;-69
2021/04/26 06:35:19;;;;;;;8.05;3.22;;;4.40;99.90;;;;;;3569528;40;20064;-69
2021/04/26 06:37:45;;;;;;;3.88;1.17;;;4.60;99.90;;;;;;3571413;40;20041;-69
2021/04/26 06:40:11;;;;;;;13.70;5.90;;;4.80;99.90;;;;;;3572950;40;20100;-69
2021/04/26 06:42:37;;;;;;;5.38;2.13;;;4.90;99.90;;;;;;3577138;40;20135;-69
2021/04/26 06:45:03;;;;;;;8.82;2.95;;;5.10;99.90;;;;;;3577220;40;20127;-69
2021/04/26 06:47:29;;;;;;;6.97;2.85;;;5.20;99.20;;;;;;3578203;40;20067;-68
2021/04/26 06:49:54;;;;;;;3.90;1.45;;;5.20;99.60;;;;;;3579123;40;20385;-68
2021/04/26 06:52:20;;;;;;;7.82;2.58;;;5.30;99.80;;;;;;3574914;40;20114;-68
2021/04/26 06:54:47;;;;;;;7.28;1.33;;;5.50;99.30;;;;;;3574138;40;20052;-68
2021/04/26 06:57:13;;;;;;;8.73;1.50;;;5.70;98.70;;;;;;3581344;40;20655;-68
2021/04/26 06:59:39;;;;;;;7.50;2.30;;;5.80;98.70;;;;;;3572418;40;20041;-68
2021/04/26 07:02:05;;;;;;;8.45;2.65;;;5.90;98.10;;;;;;3576262;40;20041;-68
2021/04/26 07:04:30;;;;;;;12.30;3.47;;;5.90;97.80;;;;;;3579977;40;20690;-68
2021/04/26 07:06:56;;;;;;;3.30;1.25;;;6.00;97.60;;;;;;3577373;40;20046;-71
2021/04/26 07:09:22;;;;;;;5.55;1.10;;;6.10;96.80;;;;;;3573626;40;20043;-68
2021/04/26 07:11:49;;;;;;;7.35;1.30;;;6.20;97.20;;;;;;3574962;40;20036;-68
2021/04/26 07:14:15;;;;;;;11.65;4.95;;;6.40;96.40;;;;;;3575760;40;20064;-68
2021/04/26 07:16:42;;;;;;;28.70;9.60;;;6.30;96.10;;;;;;3575669;40;20094;-69
2021/04/26 07:19:08;;;;;;;5.53;1.13;;;6.50;96.00;;;;;;3569839;40;20037;-68
2021/04/26 07:21:34;;;;;;;10.27;1.35;;;6.60;93.70;;;;;;3568228;40;20045;-68
2021/04/26 07:23:59;;;;;;;3.42;1.17;;;6.70;93.60;;;;;;3574447;40;20044;-68
2021/04/26 07:26:25;;;;;;;6.57;2.20;;;6.80;89.40;;;;;;3576815;39;20771;-68
2021/04/26 07:28:51;;;;;;;11.23;1.65;;;6.90;90.50;;;;;;3574662;40;20169;-68
2021/04/26 07:31:17;;;;;;;4.53;1.58;;;7.00;88.00;;;;;;3573511;40;20047;-68
2021/04/26 07:33:42;;;;;;;3.08;1.60;;;6.80;85.30;;;;;;3576339;40;20481;-68
2021/04/26 07:36:08;;;;;;;6.93;1.25;;;6.90;83.50;;;;;;3573345;40;20079;-68
2021/04/26 07:38:34;;;;;;;1.73;0.73;;;7.10;80.30;;;;;;3574240;40;20041;-68
2021/04/26 07:41:00;;;;;;;6.18;1.63;;;7.20;77.80;;;;;;3574388;40;20069;-68
2021/04/26 07:43:26;;;;;;;13.75;1.52;;;7.30;79.00;;;;;;3574496;40;20037;-67
2021/04/26 07:45:52;;;;;;;6.15;1.08;;;7.50;83.00;;;;;;3575245;40;20047;-68
2021/04/26 07:48:18;;;;;;;8.38;1.27;;;7.70;80.00;;;;;;3575620;40;20032;-68
2021/04/26 07:50:44;;;;;;;9.57;3.53;;;7.90;81.70;;;;;;3575854;40;20035;-68
2021/04/26 07:53:10;;;;;;;5.22;2.25;;;8.10;75.70;;;;;;3576343;40;20044;-68
2021/04/26 07:55:37;;;;;;;4.90;2.15;;;8.00;77.00;;;;;;3575813;40;20033;-69
2021/04/26 07:58:03;;;;;;;1.58;0.77;;;8.10;72.70;;;;;;3577447;40;20048;-68
2021/04/26 08:00:30;;;;;;;3.40;1.13;;;8.30;72.80;;;;;;3574296;40;20114;-68
2021/04/26 08:02:56;;;;;;;3.47;1.33;;;8.20;72.90;;;;;;3581195;39;20082;-68
2021/04/26 08:05:21;;;;;;;2.80;1.10;;;8.30;72.50;;;;;;3576883;39;20044;-68
2021/04/26 08:07:47;;;;;;;8.48;0.80;;;8.50;72.30;;;;;;3576689;40;20868;-68
2021/04/26 08:10:14;;;;;;;3.95;1.02;;;8.50;74.60;;;;;;3580107;40;20032;-69
2021/04/26 08:12:40;;;;;;;4.57;1.10;;;8.60;71.80;;;;;;3576754;40;20052;-68
2021/04/26 08:15:08;;;;;;;4.50;1.10;;;9.00;70.20;;;;;;3575047;40;20049;-68
2021/04/26 08:17:34;;;;;;;5.22;2.22;;;9.20;66.00;;;;;;3579361;39;20717;-69
2021/04/26 08:20:00;;;;;;;6.40;2.78;;;9.40;65.80;;;;;;3579460;40;20041;-69
2021/04/26 08:22:26;;;;;;;4.22;1.45;;;9.80;64.50;;;;;;3580488;40;20071;-68
2021/04/26 08:24:52;;;;;;;4.47;1.23;;;10.00;63.10;;;;;;3579139;40;20078;-68
2021/04/26 08:27:17;;;;;;;9.45;1.55;;;10.10;64.60;;;;;;3577207;40;20046;-69
2021/04/26 08:29:43;;;;;;;2.03;0.90;;;10.30;62.00;;;;;;3578433;40;20040;-69
2021/04/26 08:32:09;;;;;;;9.45;2.10;;;10.70;63.00;;;;;;3575855;40;20100;-69
2021/04/26 08:34:34;;;;;;;5.28;0.90;;;11.10;60.30;;;;;;3578861;40;20647;-69
2021/04/26 08:37:00;;;;;;;5.03;1.23;;;11.00;56.90;;;;;;3575375;40;20052;-68
2021/04/26 08:39:26;;;;;;;5.15;2.13;;;11.00;56.40;;;;;;3575158;40;20048;-69
2021/04/26 08:41:52;;;;;;;2.83;1.33;;;11.00;56.90;;;;;;3573032;40;20051;-69
2021/04/26 08:44:18;;;;;;;6.15;0.80;;;11.00;57.30;;;;;;3575739;40;20048;-69
2021/04/26 08:46:45;;;;;;;3.00;0.93;;;11.00;56.30;;;;;;3583932;40;20310;-68
2021/04/26 08:49:12;;;;;;;5.18;0.93;;;11.00;54.60;;;;;;3574447;40;20093;-69
2021/04/26 08:51:39;;;;;;;4.20;1.10;;;11.00;55.80;;;;;;3577226;40;20036;-68
2021/04/26 08:54:05;;;;;;;6.05;2.55;;;11.10;55.40;;;;;;3577973;40;20741;-70
2021/04/26 08:56:32;;;;;;;3.50;1.42;;;11.30;56.50;;;;;;3580821;40;20052;-69
2021/04/26 08:58:58;;;;;;;7.60;1.92;;;11.60;54.30;;;;;;3577793;40;20033;-62
2021/04/26 09:01:23;;;;;;;2.72;1.15;;;11.60;53.10;;;;;;3577445;40;20166;-61
2021/04/26 09:03:49;;;;;;;8.63;2.20;;;11.60;52.20;;;;;;3577283;40;20051;-63
2021/04/26 09:06:15;;;;;;;9.40;4.05;;;11.60;51.40;;;;;;3575167;40;20746;-61
2021/04/26 09:08:50;;;;;;;5.22;1.73;;;11.70;54.20;;;;;;3577436;40;20105;-62
2021/04/26 09:11:17;;;;;;;7.30;2.38;;;11.90;51.90;;;;;;3572936;40;20036;-61
2021/04/26 09:13:45;;;;;;;5.00;1.50;;;11.80;51.80;;;;;;3579884;40;20076;-61
2021/04/26 09:16:21;;;;;;;5.75;2.50;;;12.00;52.10;;;;;;3576847;40;20037;-64
2021/04/26 09:18:56;;;;;;;11.55;7.68;;;12.00;51.00;;;;;;3577163;40;20048;-61
2021/04/26 09:21:25;;;;;;;2.97;1.02;;;12.20;50.70;;;;;;3578630;40;20692;-61
2021/04/26 09:24:21;;;;;;;7.20;4.57;;;12.10;50.20;;;;;;3577439;40;20083;-62
2021/04/26 09:26:49;;;;;;;1.73;1.00;;;12.20;51.10;;;;;;3576706;39;20052;-62
2021/04/26 09:29:33;;;;;;;3.65;2.10;;;12.20;49.70;;;;;;3578376;40;20581;-62
2021/04/26 09:32:01;;;;;;;3.10;0.77;;;12.50;48.90;;;;;;3578694;40;20326;-62
2021/04/26 09:34:44;;;;;;;4.97;1.30;;;12.40;49.20;;;;;;3577696;40;20125;-62
2021/04/26 09:37:25;;;;;;;4.40;1.15;;;12.20;49.50;;;;;;3576144;40;20032;-62
2021/04/26 09:40:06;;;;;;;1.90;0.80;;;12.30;49.50;;;;;;3580574;40;20044;-61
2021/04/26 09:42:56;;;;;;;3.53;0.90;;;12.30;50.80;;;;;;3577714;40;20444;-62
2021/04/26 09:45:37;;;;;;;3.53;0.73;;;12.60;46.30;;;;;;3575963;40;20041;-62
2021/04/26 09:48:08;;;;;;;6.00;0.90;;;13.00;45.70;;;;;;3570535;40;20447;-62
2021/04/26 09:51:02;;;;;;;2.80;0.80;;;13.00;46.70;;;;;;3572855;40;20047;-63
2021/04/26 09:53:30;;;;;;;3.35;1.08;;;12.90;46.30;;;;;;3573024;40;20767;-62
2021/04/26 09:56:08;;;;;;;3.60;0.75;;;11.70;46.60;;;;;;3575368;40;20450;-62
2021/04/26 09:58:34;;;;;;;4.85;0.80;;;11.50;49.00;;;;;;3570626;40;20049;-62
2021/04/26 10:01:01;;;;;;;4.82;1.30;;;11.70;46.30;;;;;;3576056;40;20172;-62
2021/04/26 10:03:27;;;;;;;4.00;2.03;;;12.30;48.80;;;;;;3578665;39;20612;-61
2021/04/26 10:05:52;;;;;;;5.25;1.40;;;12.70;46.30;;;;;;3575943;39;20093;-61
2021/04/26 10:08:18;;;;;;;4.95;1.35;;;13.00;45.80;;;;;;3577408;40;20137;-62
2021/04/26 10:10:45;;;;;;;3.28;1.58;;;13.90;42.70;;;;;;3580244;40;20040;-61
2021/04/26 10:13:11;;;;;;;4.47;1.88;;;14.00;43.00;;;;;;3578744;40;20042;-61
2021/04/26 10:15:37;;;;;;;1.40;1.05;;;13.70;43.70;;;;;;3579218;39;20032;-61
2021/04/26 10:18:09;;;;;;;5.93;2.22;;;13.10;43.30;;;;;;3573596;40;20040;-64
2021/04/26 10:20:43;;;;;;;2.17;1.00;;;12.30;44.80;;;;;;3575072;40;20032;-62
2021/04/26 10:23:31;;;;;;;5.30;1.00;;;12.00;45.40;;;;;;3577725;40;20037;-61
2021/04/26 10:25:56;;;;;;;9.73;4.55;;;11.80;43.90;;;;;;3576141;40;20036;-63
2021/04/26 10:28:31;;;;;;;2.53;0.80;;;11.80;44.30;;;;;;3579278;40;20134;-62
2021/04/26 10:31:07;;;;;;;6.03;1.95;;;11.70;45.20;;;;;;3573038;40;20040;-61
2021/04/26 10:33:56;;;;;;;3.72;1.35;;;11.40;46.50;;;;;;3574533;40;20056;-61
2021/04/26 10:36:42;;;;;;;6.22;2.05;;;11.60;46.50;;;;;;3574374;40;20040;-62
2021/04/26 10:39:10;;;;;;;3.13;0.90;;;12.10;46.30;;;;;;3575697;40;20056;-62
2021/04/26 10:41:49;;;;;;;2.70;1.27;;;12.90;42.70;;;;;;3574050;40;20052;-62
2021/04/26 10:44:35;;;;;;;5.20;1.20;;;13.60;42.10;;;;;;3578260;40;20040;-62
2021/04/26 10:47:24;;;;;;;3.65;0.63;;;13.50;43.00;;;;;;3574893;40;20808;-62
2021/04/26 10:49:52;;;;;;;4.07;1.08;;;13.60;42.30;;;;;;3569205;40;20422;-62
2021/04/26 10:52:27;;;;;;;6.40;1.00;;;13.60;42.20;;;;;;3577105;40;20110;-61
2021/04/26 10:54:54;;;;;;;2.13;0.82;;;13.50;42.80;;;;;;3577464;39;20087;-61
2021/04/26 10:57:41;;;;;;;6.47;1.30;;;13.40;43.40;;;;;;3577900;39;20040;-61
2021/04/26 11:00:22;;;;;;;3.58;2.08;;;13.00;44.10;;;;;;3575370;40;20317;-62
2021/04/26 11:03:29;;;;;;;9.95;5.55;;;12.90;43.80;;;;;;3574224;40;20099;-61
2021/04/26 11:06:06;;;;;;;;;;;13.00;43.80;;;;;;3569393;40;20074;-61
2021/04/26 11:08:37;;;;;;;2.20;1.20;;;12.90;45.40;;;;;;3574640;40;20067;-61
2021/04/26 11:11:18;;;;;;;5.43;0.85;;;12.80;45.10;;;;;;3574755;40;20037;-62
2021/04/26 11:13:55;;;;;;;8.80;3.90;;;12.40;44.80;;;;;;3569911;40;20411;-61
2021/04/26 11:16:30;;;;;;;18.55;9.32;;;13.40;44.60;;;;;;3572665;40;20044;-62
2021/04/26 11:18:58;;;;;;;5.47;2.60;;;13.70;43.30;;;;;;3577111;40;20062;-61
2021/04/26 11:21:43;;;;;;;1.63;0.90;;;13.20;43.40;;;;;;3575719;40;20047;-61
2021/04/26 11:24:21;;;;;;;5.65;1.00;;;12.50;45.40;;;;;;3573726;40;20766;-62
2021/04/26 11:27:13;;;;;;;6.45;2.20;;;12.50;44.30;;;;;;3575547;40;20125;-62
2021/04/26 11:29:42;;;;;;;2.55;1.05;;;13.10;44.70;;;;;;3571597;40;20430;-62
2021/04/26 11:32:12;;;;;;;3.05;0.75;;;13.70;44.20;;;;;;3577908;40;20037;-61
2021/04/26 11:34:47;;;;;;;3.50;0.80;;;13.60;43.60;;;;;;3574038;40;20762;-62
2021/04/26 11:37:18;;;;;;;2.25;0.80;;;13.50;42.40;;;;;;3578726;40;20046;-61
2021/04/26 11:39:45;;;;;;;2.70;0.80;;;13.50;41.30;;;;;;3576689;40;20050;-62
2021/04/26 11:42:23;;;;;;;6.72;0.65;;;13.90;41.50;;;;;;3576728;40;20714;-62
2021/04/26 11:44:50;;;;;;;3.67;1.00;;;14.00;41.90;;;;;;3579350;40;20055;-61
2021/04/26 11:47:19;;;;;;;2.83;0.80;;;13.80;42.30;;;;;;3579407;39;20103;-62
2021/04/26 11:49:54;;;;;;;4.68;0.80;;;13.40;44.30;;;;;;3579759;40;20029;-61
2021/04/26 11:52:30;;;;;;;4.07;1.17;;;13.00;44.10;;;;;;3574791;40;20715;-61
2021/04/26 11:55:05;;;;;;;1.23;0.70;;;12.70;45.50;;;;;;3577772;40;20413;-62
2021/04/26 11:57:42;;;;;;;3.73;0.80;;;13.40;43.80;;;;;;3575486;40;20079;-62
2021/04/26 12:00:14;;;;;;;5.07;0.90;;;14.50;43.80;;;;;;3576008;40;20044;-70
2021/04/26 12:02:44;;;;;;;2.92;0.90;;;15.20;41.60;;;;;;3580752;40;20037;-71
2021/04/26 12:05:24;;;;;;;6.72;3.40;;;13.70;42.10;;;;;;3578148;40;20060;-70
2021/04/26 12:07:51;;;;;;;3.22;1.10;;;13.80;43.30;;;;;;3573245;40;20144;-71
2021/04/26 12:10:18;;;;;;;5.15;2.92;;;13.90;41.90;;;;;;3580942;40;20048;-70
2021/04/26 12:12:45;;;;;;;5.28;1.48;;;14.10;42.30;;;;;;3572022;40;20045;-71
2021/04/26 12:15:15;;;;;;;7.68;2.60;;;14.30;42.20;;;;;;3572033;40;20123;-70
2021/04/26 12:17:42;;;;;;;2.85;1.30;;;14.10;41.70;;;;;;3570511;40;20048;-70
2021/04/26 12:20:20;;;;;;;4.20;1.05;;;13.80;42.10;;;;;;3578345;40;20939;-70
2021/04/26 12:22:49;;;;;;;2.88;1.20;;;13.50;43.00;;;;;;3580865;40;20069;-69
2021/04/26 12:25:15;;;;;;;2.10;0.77;;;12.50;44.50;;;;;;3579306;40;20481;-70
2021/04/26 12:27:43;;;;;;;3.97;1.20;;;12.40;46.20;;;;;;3579641;40;20044;-70
2021/04/26 12:30:08;;;;;;;3.45;1.13;;;12.60;45.60;;;;;;3579647;40;20044;-69
2021/04/26 12:32:34;;;;;;;2.88;1.48;;;12.70;45.30;;;;;;3578296;40;20417;-70
2021/04/26 12:35:03;;;;;;;2.13;0.88;;;12.60;45.50;;;;;;3577294;40;20095;-70
2021/04/26 12:37:32;;;;;;;1.25;0.75;;;12.30;45.60;;;;;;3576245;39;20036;-69
2021/04/26 12:40:22;;;;;;;3.55;0.98;;;12.10;46.60;;;;;;3578243;40;20032;-70
2021/04/26 12:43:01;;;;;;;4.15;0.77;;;12.10;46.50;;;;;;3576357;39;20159;-69
2021/04/26 12:45:30;;;;;;;1.58;0.65;;;12.70;46.10;;;;;;3580998;40;20040;-70
2021/04/26 12:48:01;;;;;;;6.45;2.65;;;13.40;43.70;;;;;;3579549;40;20665;-70
2021/04/26 12:50:44;;;;;;;3.55;1.00;;;14.10;44.50;;;;;;3582006;40;20407;-69
2021/04/26 12:53:16;;;;;;;3.58;0.90;;;12.60;43.70;;;;;;3576280;40;20133;-69
2021/04/26 12:55:52;;;;;;;4.40;0.80;;;13.10;46.00;;;;;;3576584;40;20036;-69
2021/04/26 12:58:28;;;;;;;2.88;0.88;;;13.30;43.80;;;;;;3576170;40;20034;-69
2021/04/26 13:00:55;;;;;;;3.92;1.48;;;13.60;44.20;;;;;;3575571;40;20081;-69
2021/04/26 13:03:35;;;;;;;5.45;1.60;;;13.60;44.40;;;;;;3575964;40;20440;-68
2021/04/26 13:06:13;;;;;;;2.58;0.95;;;13.70;43.40;;;;;;3575651;40;20075;-68
2021/04/26 13:08:42;;;;;;;4.35;1.55;;;13.20;43.50;;;;;;3574072;40;20041;-70
2021/04/26 13:11:10;;;;;;;5.68;1.30;;;13.10;44.40;;;;;;3577403;40;20041;-69